Time;durP1;ratioP1;P1;durP2;ratioP2;P2;SDS_P1;SDS_P2;PMS_P1;PMS_P2;Temp;Humidity;BMP_temperature;BMP_pressure;BME280_temperature;BME280_humidity;BME280_pressure;Samples;Min_cycle;Max_cycle;Signal;HPM_P1;HPM_P2
2022/10/21 00:00:58;;;;;;;;;;;;;;;2.67;85.46;101309.88;86012;1299;80702;-57
2022/10/21 00:03:14;;;;;;;;;;;;;;;2.67;85.43;101310.25;85946;1297;99355;-56
2022/10/21 00:05:23;;;;;;;;;;;;;;;2.68;85.41;101307.14;85963;1299;88807;-57
2022/10/21 00:07:30;;;;;;;;;;;;;;;2.68;85.48;101306.27;85960;1294;95339;-58
2022/10/21 00:09:37;;;;;;;;;;;;;;;2.67;85.42;101303.69;85948;1294;80945;-57
2022/10/21 00:11:44;;;;;;;;;;;;;;;2.66;85.36;101299.86;85970;1294;82228;-57
2022/10/21 00:13:52;;;;;;;;;;;;;;;2.66;85.40;101296.49;85955;1292;99041;-56
2022/10/21 00:16:04;;;;;;;;;;;;;;;2.65;85.35;101289.63;85999;1298;87359;-56
2022/10/21 00:18:12;;;;;;;;;;;;;;;2.67;85.33;101293.52;85938;1294;94620;-57
2022/10/21 00:20:22;;;;;;;;;;;;;;;2.66;85.26;101292.52;85974;1300;81025;-57
2022/10/21 00:22:29;;;;;;;;;;;;;;;2.69;85.34;101289.83;85982;1294;81003;-57
2022/10/21 00:24:38;;;;;;;;;;;;;;;2.71;85.37;101286.11;86031;1294;99690;-57
2022/10/21 00:26:45;;;;;;;;;;;;;;;2.67;85.37;101288.92;85999;1293;87118;-57
2022/10/21 00:28:56;;;;;;;;;;;;;;;2.66;85.38;101291.88;86001;1297;95198;-57
2022/10/21 00:31:05;;;;;;;;;;;;;;;2.65;85.38;101295.63;86015;1297;79836;-56
2022/10/21 00:33:13;;;;;;;;;;;;;;;2.66;85.40;101287.27;85990;1292;83092;-57
2022/10/21 00:35:19;;;;;;;;;;;;;;;2.64;85.28;101286.29;86010;1300;98086;-57
2022/10/21 00:37:28;;;;;;;;;;;;;;;2.68;85.41;101281.59;85976;1300;89045;-57
2022/10/21 00:39:35;;;;;;;;;;;;;;;2.69;85.48;101291.13;86004;1293;94761;-57
2022/10/21 00:41:43;;;;;;;;;;;;;;;2.70;85.53;101288.67;85948;1297;80788;-57
2022/10/21 00:43:58;;;;;;;;;;;;;;;2.74;85.33;101286.63;85995;1297;81855;-57
2022/10/21 00:46:08;;;;;;;;;;;;;;;2.76;85.50;101280.24;85957;1297;98505;-57
2022/10/21 00:48:24;;;;;;;;;;;;;;;2.79;85.45;101274.80;85989;1297;87037;-57
2022/10/21 00:50:35;;;;;;;;;;;;;;;2.84;85.53;101269.61;85973;1284;92861;-57
2022/10/21 00:52:42;;;;;;;;;;;;;;;2.89;85.60;101272.60;85909;1299;80772;-56
2022/10/21 00:54:53;;;;;;;;;;;;;;;2.92;85.48;101273.83;85966;1301;81320;-57
2022/10/21 00:57:00;;;;;;;;;;;;;;;2.93;85.47;101266.45;85946;1297;99999;-57
2022/10/21 00:59:08;;;;;;;;;;;;;;;2.96;85.50;101270.97;85979;1297;88466;-57
2022/10/21 01:01:16;;;;;;;;;;;;;;;2.96;85.47;101269.02;85972;1292;94130;-57
2022/10/21 01:03:25;;;;;;;;;;;;;;;2.97;85.36;101270.70;85960;1294;79309;-56
2022/10/21 01:05:32;;;;;;;;;;;;;;;2.93;85.34;101261.41;86048;1301;80876;-57
2022/10/21 01:07:41;;;;;;;;;;;;;;;2.92;85.27;101265.77;86019;1297;98214;-58
2022/10/21 01:09:48;;;;;;;;;;;;;;;2.94;85.28;101266.33;86002;1297;88262;-57
2022/10/21 01:11:56;;;;;;;;;;;;;;;2.92;85.20;101267.58;86016;1297;93058;-57
2022/10/21 01:14:28;;;;;;;;;;;;;;;2.90;85.35;101265.97;86033;1297;80573;-57
2022/10/21 01:16:41;;;;;;;;;;;;;;;2.87;85.13;101263.90;86042;1298;82451;-56
2022/10/21 01:18:54;;;;;;;;;;;;;;;2.86;85.12;101265.38;86026;1294;98749;-56
2022/10/21 01:21:07;;;;;;;;;;;;;;;2.94;85.51;101261.58;85998;1299;87286;-57
2022/10/21 01:23:42;;;;;;;;;;;;;;;2.96;85.38;101258.69;85992;1297;95385;-57
2022/10/21 01:26:14;;;;;;;;;;;;;;;3.03;85.23;101263.16;85978;1297;78526;-57
2022/10/21 01:28:29;;;;;;;;;;;;;;;3.09;85.24;101262.89;85945;1297;81210;-56
2022/10/21 01:30:39;;;;;;;;;;;;;;;3.05;85.07;101263.54;85969;1298;98611;-57
2022/10/21 01:33:28;;;;;;;;;;;;;;;3.03;85.00;101267.80;85961;1297;88759;-57
2022/10/21 01:35:39;;;;;;;;;;;;;;;3.01;84.94;101265.13;85891;1294;96301;-57
2022/10/21 01:37:53;;;;;;;;;;;;;;;2.97;84.86;101256.16;85941;1288;79466;-57
2022/10/21 01:40:06;;;;;;;;;;;;;;;3.01;84.92;101254.96;85990;1299;81581;-58
2022/10/21 01:42:16;;;;;;;;;;;;;;;3.02;84.84;101248.83;85965;1294;97551;-58
2022/10/21 01:44:27;;;;;;;;;;;;;;;3.08;84.86;101241.63;86006;1297;85118;-58
2022/10/21 01:46:40;;;;;;;;;;;;;;;3.10;84.75;101236.27;85988;1293;94772;-56
2022/10/21 01:48:53;;;;;;;;;;;;;;;3.11;84.73;101232.48;85991;1297;81478;-57
2022/10/21 01:51:02;;;;;;;;;;;;;;;3.13;84.76;101231.27;86044;1294;82836;-57
2022/10/21 01:53:11;;;;;;;;;;;;;;;3.13;84.67;101226.06;86023;1292;98242;-57
2022/10/21 01:55:23;;;;;;;;;;;;;;;3.14;84.69;101221.19;86003;1292;88946;-57
2022/10/21 01:57:36;;;;;;;;;;;;;;;3.12;84.60;101218.83;86008;1293;93359;-57
2022/10/21 01:59:43;;;;;;;;;;;;;;;3.11;84.42;101219.65;85967;1297;80328;-58
2022/10/21 02:01:54;;;;;;;;;;;;;;;3.09;84.34;101210.02;86009;1294;82049;-58
2022/10/21 02:04:02;;;;;;;;;;;;;;;3.10;84.48;101202.97;86033;1291;100071;-58
2022/10/21 02:06:12;;;;;;;;;;;;;;;3.11;84.25;101203.64;86009;1291;87528;-57
2022/10/21 02:08:19;;;;;;;;;;;;;;;3.16;84.20;101203.95;85983;1299;94425;-57
2022/10/21 02:10:29;;;;;;;;;;;;;;;3.16;84.17;101202.14;85977;1294;81354;-58
2022/10/21 02:12:37;;;;;;;;;;;;;;;3.18;83.93;101204.10;85995;1294;82267;-57
2022/10/21 02:14:46;;;;;;;;;;;;;;;3.20;83.91;101203.29;85989;1293;99834;-57
2022/10/21 02:16:56;;;;;;;;;;;;;;;3.19;83.87;101195.54;86020;1300;88658;-56
2022/10/21 02:19:03;;;;;;;;;;;;;;;3.16;83.82;101188.61;85986;1297;95404;-58
2022/10/21 02:21:14;;;;;;;;;;;;;;;3.12;83.81;101177.36;85982;1298;79915;-57
2022/10/21 02:23:23;;;;;;;;;;;;;;;3.10;83.62;101176.84;86006;1297;81774;-57
2022/10/21 02:25:32;;;;;;;;;;;;;;;3.07;83.52;101176.35;86023;1297;98414;-57
2022/10/21 02:27:40;;;;;;;;;;;;;;;3.04;83.45;101172.14;86009;1297;88362;-57
2022/10/21 02:29:48;;;;;;;;;;;;;;;2.99;83.60;101176.09;85999;1294;92366;-57
2022/10/21 02:32:04;;;;;;;;;;;;;;;2.95;83.49;101167.89;86016;1297;79043;-58
2022/10/21 02:34:26;;;;;;;;;;;;;;;2.92;83.53;101158.86;86043;1299;80640;-57
2022/10/21 02:36:40;;;;;;;;;;;;;;;2.90;83.36;101149.11;86084;1297;99161;-57
2022/10/21 02:38:51;;;;;;;;;;;;;;;2.87;83.48;101147.20;86082;1294;87212;-57
2022/10/21 02:41:02;;;;;;;;;;;;;;;2.84;83.55;101143.66;86030;1297;93314;-58
2022/10/21 02:43:14;;;;;;;;;;;;;;;2.83;83.55;101139.88;86013;1297;79932;-58
2022/10/21 02:45:21;;;;;;;;;;;;;;;2.86;83.58;101147.45;86050;1297;83233;-58
2022/10/21 02:47:29;;;;;;;;;;;;;;;2.89;83.56;101149.91;86009;1295;99004;-58
2022/10/21 02:49:36;;;;;;;;;;;;;;;2.91;83.61;101154.83;85994;1294;87408;-57
2022/10/21 02:51:44;;;;;;;;;;;;;;;2.92;83.58;101153.94;85973;1297;95251;-57
2022/10/21 02:53:52;;;;;;;;;;;;;;;2.96;83.59;101147.36;86009;1294;80998;-56
2022/10/21 02:55:59;;;;;;;;;;;;;;;2.96;83.54;101137.01;86006;1294;82611;-56
2022/10/21 02:58:06;;;;;;;;;;;;;;;2.99;83.73;101137.68;85962;1297;99484;-57
2022/10/21 03:00:15;;;;;;;;;;;;;;;3.01;83.67;101141.61;86005;1297;88799;-58
2022/10/21 03:02:22;;;;;;;;;;;;;;;3.03;83.56;101140.23;85997;1292;91968;-58
2022/10/21 03:04:29;;;;;;;;;;;;;;;3.02;83.61;101135.50;85985;1297;80658;-57
2022/10/21 03:06:36;;;;;;;;;;;;;;;3.05;83.62;101132.08;85983;1299;83056;-57
2022/10/21 03:08:46;;;;;;;;;;;;;;;3.07;83.65;101124.06;85991;1291;98091;-56
2022/10/21 03:10:56;;;;;;;;;;;;;;;3.09;83.64;101123.20;86037;1297;88645;-56
2022/10/21 03:13:03;;;;;;;;;;;;;;;3.08;83.61;101124.39;86020;1294;94494;-57
2022/10/21 03:15:12;;;;;;;;;;;;;;;3.05;83.65;101131.20;86026;1297;80889;-58
2022/10/21 03:17:19;;;;;;;;;;;;;;;3.06;83.67;101130.54;86082;1297;82493;-58
2022/10/21 03:19:27;;;;;;;;;;;;;;;3.08;83.68;101128.46;86057;1297;98685;-58
2022/10/21 03:21:34;;;;;;;;;;;;;;;3.07;83.66;101126.73;86010;1298;87103;-58
2022/10/21 03:23:41;;;;;;;;;;;;;;;3.04;83.73;101121.84;86047;1297;94726;-57
2022/10/21 03:25:49;;;;;;;;;;;;;;;3.05;83.74;101115.30;86029;1291;79881;-57
2022/10/21 03:27:56;;;;;;;;;;;;;;;3.07;83.87;101110.05;86014;1299;83010;-57
2022/10/21 03:30:07;;;;;;;;;;;;;;;3.10;83.82;101109.59;86047;1299;99267;-57
2022/10/21 03:32:13;;;;;;;;;;;;;;;3.10;83.76;101103.87;85995;1297;88356;-57
2022/10/21 03:34:20;;;;;;;;;;;;;;;3.11;83.80;101092.38;85988;1297;94114;-57
2022/10/21 03:36:27;;;;;;;;;;;;;;;3.12;83.80;101079.35;85969;1296;80869;-58
2022/10/21 03:38:34;;;;;;;;;;;;;;;3.12;83.78;101079.73;86000;1297;82515;-58
2022/10/21 03:40:44;;;;;;;;;;;;;;;3.09;83.92;101081.33;85974;1293;99262;-56
2022/10/21 03:42:52;;;;;;;;;;;;;;;3.11;83.77;101081.90;85850;1293;90013;-56
2022/10/21 03:44:59;;;;;;;;;;;;;;;3.08;83.87;101084.32;85983;1292;95000;-57
2022/10/21 03:47:06;;;;;;;;;;;;;;;3.08;83.86;101079.66;86001;1297;81171;-58
2022/10/21 03:49:15;;;;;;;;;;;;;;;3.08;83.67;101081.99;86011;1291;82692;-58
2022/10/21 03:51:22;;;;;;;;;;;;;;;3.08;83.79;101090.41;85969;1292;99270;-58
2022/10/21 03:53:29;;;;;;;;;;;;;;;3.08;83.64;101087.69;85978;1297;89443;-58
2022/10/21 03:55:36;;;;;;;;;;;;;;;3.08;83.81;101078.42;86010;1297;93949;-58
2022/10/21 03:57:43;;;;;;;;;;;;;;;3.07;83.80;101072.83;86000;1297;79184;-57
2022/10/21 03:59:50;;;;;;;;;;;;;;;3.08;83.97;101081.30;86023;1290;82150;-57
2022/10/21 04:01:57;;;;;;;;;;;;;;;3.11;83.89;101082.12;86017;1292;98580;-57
2022/10/21 04:04:04;;;;;;;;;;;;;;;3.08;83.94;101082.16;86044;1292;88838;-58
2022/10/21 04:06:12;;;;;;;;;;;;;;;3.06;83.91;101081.28;85881;1300;96002;-58
2022/10/21 04:08:19;;;;;;;;;;;;;;;3.05;83.63;101075.46;86026;1297;81120;-59
2022/10/21 04:10:25;;;;;;;;;;;;;;;2.99;83.56;101076.98;86033;1297;82756;-57
2022/10/21 04:12:32;;;;;;;;;;;;;;;3.00;83.73;101079.06;86013;1297;99381;-56
2022/10/21 04:14:39;;;;;;;;;;;;;;;3.00;83.77;101081.23;85969;1298;88296;-57
2022/10/21 04:16:49;;;;;;;;;;;;;;;2.97;83.58;101085.73;85985;1299;93067;-56
2022/10/21 04:18:56;;;;;;;;;;;;;;;2.94;83.58;101082.58;85994;1297;77351;-56
2022/10/21 04:21:09;;;;;;;;;;;;;;;2.92;83.55;101078.49;85967;1291;81754;-56
2022/10/21 04:23:16;;;;;;;;;;;;;;;2.89;83.55;101071.05;85946;1299;99899;-57
2022/10/21 04:25:23;;;;;;;;;;;;;;;2.85;83.56;101063.90;85982;1294;88953;-58
2022/10/21 04:27:30;;;;;;;;;;;;;;;2.85;83.38;101059.86;85968;1292;96233;-58
2022/10/21 04:29:37;;;;;;;;;;;;;;;2.85;83.43;101062.34;85961;1292;81683;-58
2022/10/21 04:31:45;;;;;;;;;;;;;;;2.84;83.35;101055.80;85966;1297;81633;-58
2022/10/21 04:33:52;;;;;;;;;;;;;;;2.83;83.47;101048.30;85933;1297;99833;-57
2022/10/21 04:35:59;;;;;;;;;;;;;;;2.84;83.43;101043.53;85972;1297;86341;-57
2022/10/21 04:38:07;;;;;;;;;;;;;;;2.84;83.52;101043.03;85961;1297;94820;-58
2022/10/21 04:40:14;;;;;;;;;;;;;;;2.83;83.51;101042.37;85972;1297;80348;-56
2022/10/21 04:42:21;;;;;;;;;;;;;;;2.84;83.38;101042.83;86010;1288;82284;-56
2022/10/21 04:44:31;;;;;;;;;;;;;;;2.84;83.41;101043.20;85977;1291;99092;-57
2022/10/21 04:46:38;;;;;;;;;;;;;;;2.85;83.27;101034.90;85948;1292;89134;-57
2022/10/21 04:48:48;;;;;;;;;;;;;;;2.85;83.25;101033.85;85522;1297;631788;-58
2022/10/21 04:51:00;;;;;;;;;;;;;;;2.88;83.34;101031.13;85982;1299;79569;-57
2022/10/21 04:53:08;;;;;;;;;;;;;;;2.90;83.15;101033.40;86006;1294;81490;-57
2022/10/21 04:55:18;;;;;;;;;;;;;;;2.90;83.20;101028.63;85997;1299;98050;-57
2022/10/21 04:57:25;;;;;;;;;;;;;;;2.92;83.21;101024.92;86054;1291;87585;-57
2022/10/21 04:59:33;;;;;;;;;;;;;;;2.94;83.07;101027.43;85993;1297;94051;-57
2022/10/21 05:01:43;;;;;;;;;;;;;;;2.96;82.94;101028.30;85954;1297;79357;-57
2022/10/21 05:03:50;;;;;;;;;;;;;;;2.96;82.84;101021.23;86015;1290;81785;-57
2022/10/21 05:05:58;;;;;;;;;;;;;;;2.95;82.84;101017.40;85984;1297;98177;-57
2022/10/21 05:08:05;;;;;;;;;;;;;;;2.94;82.66;101013.02;85986;1290;89379;-57
2022/10/21 05:10:12;;;;;;;;;;;;;;;2.92;82.56;101013.67;85989;1297;94823;-57
2022/10/21 05:12:21;;;;;;;;;;;;;;;2.91;82.71;101011.27;85976;1297;79948;-59
2022/10/21 05:14:29;;;;;;;;;;;;;;;2.90;82.71;101006.77;85533;1290;154185;-60
2022/10/21 05:16:40;;;;;;;;;;;;;;;2.90;82.67;100999.30;85699;1303;99920;-60
2022/10/21 05:18:51;;;;;;;;;;;;;;;2.89;82.68;100992.10;85682;1305;89140;-57
2022/10/21 05:21:01;;;;;;;;;;;;;;;2.89;82.66;100983.34;85695;1304;95603;-58
2022/10/21 05:23:09;;;;;;;;;;;;;;;2.90;82.48;100980.82;85708;1296;80773;-58
2022/10/21 05:25:18;;;;;;;;;;;;;;;2.92;82.57;100978.86;85632;1303;82322;-57
2022/10/21 05:27:25;;;;;;;;;;;;;;;2.94;82.43;100967.98;85518;1303;99375;-57
2022/10/21 05:29:33;;;;;;;;;;;;;;;2.96;82.30;100964.45;85595;1303;88795;-59
2022/10/21 05:31:42;;;;;;;;;;;;;;;2.99;82.44;100960.13;85684;1303;93441;-58
2022/10/21 05:33:54;;;;;;;;;;;;;;;3.01;82.40;100970.10;85544;1310;81088;-56
2022/10/21 05:36:06;;;;;;;;;;;;;;;3.05;82.38;100972.11;87177;1297;80340;-55
2022/10/21 05:38:13;;;;;;;;;;;;;;;3.11;82.23;100965.75;86710;1295;97748;-57
2022/10/21 05:40:23;;;;;;;;;;;;;;;3.17;82.10;100961.83;85538;1306;88268;-58
2022/10/21 05:42:30;;;;;;;;;;;;;;;3.25;82.06;100967.19;87123;1295;95645;-57
2022/10/21 05:44:37;;;;;;;;;;;;;;;3.32;81.92;100965.33;87139;1303;79758;-57
2022/10/21 05:46:47;;;;;;;;;;;;;;;3.41;81.98;100957.43;87153;1296;80698;-57
2022/10/21 05:48:55;;;;;;;;;;;;;;;3.50;81.81;100957.39;85960;1295;99293;-57
2022/10/21 05:51:02;;;;;;;;;;;;;;;3.55;81.60;100964.29;85689;1307;88394;-57
2022/10/21 05:53:09;;;;;;;;;;;;;;;3.62;81.60;100963.31;85664;1302;92019;-57
2022/10/21 05:55:18;;;;;;;;;;;;;;;3.66;81.48;100961.73;85663;1307;78099;-57
2022/10/21 05:57:31;;;;;;;;;;;;;;;3.67;81.25;100960.90;85677;1302;81806;-57
2022/10/21 05:59:41;;;;;;;;;;;;;;;3.66;80.93;100959.60;85694;1303;98235;-57
2022/10/21 06:01:48;;;;;;;;;;;;;;;3.66;81.04;100960.64;85689;1303;87606;-56
2022/10/21 06:03:58;;;;;;;;;;;;;;;3.63;80.71;100962.02;85666;1303;93555;-57
2022/10/21 06:06:08;;;;;;;;;;;;;;;3.62;80.84;100963.09;85681;1302;78398;-57
2022/10/21 06:08:16;;;;;;;;;;;;;;;3.64;80.83;100967.20;85703;1305;82198;-58
2022/10/21 06:10:24;;;;;;;;;;;;;;;3.66;80.81;100966.01;85679;1303;99431;-57
2022/10/21 06:12:30;;;;;;;;;;;;;;;3.64;80.57;100965.64;85709;1303;88849;-58
2022/10/21 06:14:39;;;;;;;;;;;;;;;3.63;80.52;100968.74;85678;1303;94148;-58
2022/10/21 06:16:46;;;;;;;;;;;;;;;3.63;80.43;100966.27;85735;1302;81270;-57
2022/10/21 06:18:54;;;;;;;;;;;;;;;3.65;80.38;100970.90;85727;1300;81796;-57
2022/10/21 06:21:04;;;;;;;;;;;;;;;3.68;80.38;100971.51;85687;1304;98448;-57
2022/10/21 06:23:15;;;;;;;;;;;;;;;3.72;80.27;100976.48;85697;1303;88139;-58
2022/10/21 06:25:22;;;;;;;;;;;;;;;3.77;80.29;100975.92;85676;1298;92455;-58
2022/10/21 06:27:29;;;;;;;;;;;;;;;3.81;80.23;100971.66;85698;1303;79974;-57
2022/10/21 06:29:36;;;;;;;;;;;;;;;3.83;79.82;100973.44;85719;1302;82754;-56
2022/10/21 06:31:44;;;;;;;;;;;;;;;3.80;79.50;100971.33;85726;1305;99755;-56
2022/10/21 06:33:53;;;;;;;;;;;;;;;3.85;79.80;100973.55;85695;1305;87756;-57
2022/10/21 06:36:00;;;;;;;;;;;;;;;3.90;79.49;100966.60;85680;1302;95477;-58
2022/10/21 06:38:08;;;;;;;;;;;;;;;3.93;79.64;100972.89;85655;1303;79561;-58
2022/10/21 06:40:16;;;;;;;;;;;;;;;3.99;79.38;100969.88;85675;1306;82361;-57
2022/10/21 06:42:23;;;;;;;;;;;;;;;4.03;79.12;100965.96;85669;1305;99259;-57
2022/10/21 06:44:33;;;;;;;;;;;;;;;4.10;79.11;100965.64;85678;1302;88203;-57
2022/10/21 06:46:43;;;;;;;;;;;;;;;4.23;79.14;100963.52;85685;1303;95211;-57
2022/10/21 06:48:50;;;;;;;;;;;;;;;4.32;78.69;100963.20;85666;1302;77985;-57
2022/10/21 06:51:05;;;;;;;;;;;;;;;4.41;78.54;100962.39;85685;1303;81758;-58
2022/10/21 06:53:15;;;;;;;;;;;;;;;4.53;78.60;100961.29;85686;1303;99424;-59
2022/10/21 06:55:22;;;;;;;;;;;;;;;4.69;78.32;100965.20;85696;1296;86692;-57
2022/10/21 06:57:30;;;;;;;;;;;;;;;4.82;78.20;100965.13;85675;1304;94476;-57
2022/10/21 06:59:39;;;;;;;;;;;;;;;4.99;77.85;100963.02;85705;1303;81737;-57
2022/10/21 07:01:51;;;;;;;;;;;;;;;5.02;76.95;100962.00;85742;1302;81862;-57
2022/10/21 07:03:58;;;;;;;;;;;;;;;5.09;77.35;100967.45;85775;1298;98576;-65
2022/10/21 07:06:10;;;;;;;;;;;;;;;5.22;77.35;100967.22;85738;1302;89377;-58
2022/10/21 07:08:17;;;;;;;;;;;;;;;5.38;77.36;100969.70;85720;1303;94543;-59
2022/10/21 07:10:26;;;;;;;;;;;;;;;5.50;76.90;100974.88;85735;1304;78446;-58
2022/10/21 07:12:33;;;;;;;;;;;;;;;5.53;77.13;100974.77;85705;1302;80377;-57
2022/10/21 07:14:40;;;;;;;;;;;;;;;5.68;76.81;100975.26;85733;1296;99835;-57
2022/10/21 07:16:47;;;;;;;;;;;;;;;5.87;77.11;100967.94;85687;1303;88257;-58
2022/10/21 07:18:55;;;;;;;;;;;;;;;6.10;76.65;100963.41;85670;1303;95255;-58
2022/10/21 07:21:10;;;;;;;;;;;;;;;6.50;75.93;100964.48;85705;1298;78905;-57
2022/10/21 07:23:18;;;;;;;;;;;;;;;7.14;75.47;100951.67;85695;1297;83027;-56
2022/10/21 07:25:28;;;;;;;;;;;;;;;7.56;74.05;100944.83;85698;1302;99573;-58
2022/10/21 07:27:35;;;;;;;;;;;;;;;7.51;73.06;100936.95;85666;1299;86651;-58
2022/10/21 07:29:45;;;;;;;;;;;;;;;7.76;72.31;100935.61;85703;1303;94575;-58
2022/10/21 07:31:53;;;;;;;;;;;;;;;8.36;72.70;100931.21;85656;1300;80187;-59
2022/10/21 07:34:00;;;;;;;;;;;;;;;8.90;72.53;100926.08;85655;1298;80403;-58
2022/10/21 07:36:11;;;;;;;;;;;;;;;9.55;71.84;100924.08;85673;1290;100302;-56
2022/10/21 07:38:18;;;;;;;;;;;;;;;10.05;68.53;100918.76;85709;1305;88569;-57
2022/10/21 07:40:27;;;;;;;;;;;;;;;10.32;67.14;100917.67;85705;1299;95128;-58
2022/10/21 07:42:34;;;;;;;;;;;;;;;10.38;66.22;100921.37;85696;1302;79372;-57
2022/10/21 07:44:42;;;;;;;;;;;;;;;10.08;66.72;100922.98;85737;1298;81161;-58
2022/10/21 07:46:50;;;;;;;;;;;;;;;9.66;67.05;100920.77;85744;1305;99239;-57
2022/10/21 07:48:58;;;;;;;;;;;;;;;9.33;67.79;100920.64;85734;1298;88422;-58
2022/10/21 07:51:08;;;;;;;;;;;;;;;8.94;67.79;100923.17;85704;1303;95018;-56
2022/10/21 07:53:16;;;;;;;;;;;;;;;8.66;68.12;100924.80;85690;1298;79296;-56
2022/10/21 07:55:24;;;;;;;;;;;;;;;8.40;68.26;100921.85;85720;1302;81502;-58
2022/10/21 07:57:34;;;;;;;;;;;;;;;8.26;68.62;100917.73;85681;1304;97623;-57
2022/10/21 07:59:42;;;;;;;;;;;;;;;8.19;68.73;100913.42;85711;1297;86456;-57
2022/10/21 08:01:51;;;;;;;;;;;;;;;8.10;68.74;100908.47;85652;1299;94372;-58
2022/10/21 08:04:00;;;;;;;;;;;;;;;7.98;68.72;100902.95;85706;1290;80885;-57
2022/10/21 08:06:13;;;;;;;;;;;;;;;7.84;69.11;100900.66;85676;1305;81533;-57
2022/10/21 08:08:21;;;;;;;;;;;;;;;7.76;69.22;100902.45;85691;1304;98311;-57
2022/10/21 08:10:31;;;;;;;;;;;;;;;7.67;69.36;100899.92;85662;1303;87744;-57
2022/10/21 08:12:39;;;;;;;;;;;;;;;7.57;69.17;100903.48;85635;1302;94567;-58
2022/10/21 08:14:46;;;;;;;;;;;;;;;7.41;69.43;100902.98;85666;1302;78523;-57
2022/10/21 08:20:34;;;;;;;;;;;;;;;7.42;69.92;100899.98;86089;1287;96962;-56
2022/10/21 08:22:45;;;;;;;;;;;;;;;7.45;70.30;100902.60;86005;1300;87351;-56
2022/10/21 08:24:53;;;;;;;;;;;;;;;7.56;69.91;100902.92;86005;1297;92896;-56
2022/10/21 08:27:01;;;;;;;;;;;;;;;7.51;70.00;100898.54;86024;1298;79905;-57
2022/10/21 08:29:08;;;;;;;;;;;;;;;7.58;70.02;100896.61;86031;1295;81919;-56
2022/10/21 08:31:18;;;;;;;;;;;;;;;7.64;70.08;100890.54;85988;1298;98548;-55
2022/10/21 08:33:26;;;;;;;;;;;;;;;7.76;70.39;100885.23;85979;1292;88937;-57
2022/10/21 08:35:33;;;;;;;;;;;;;;;7.96;70.49;100880.90;85974;1294;95091;-59
2022/10/21 08:37:47;;;;;;;;;;;;;;;8.05;70.07;100876.60;85966;1294;79939;-57
2022/10/21 08:39:57;;;;;;;;;;;;;;;8.13;69.52;100869.44;85986;1301;83192;-58
2022/10/21 08:42:08;;;;;;;;;;;;;;;8.11;69.42;100867.70;85959;1297;100084;-58
2022/10/21 08:44:23;;;;;;;;;;;;;;;8.31;69.80;100863.41;85978;1300;86976;-57
2022/10/21 08:46:34;;;;;;;;;;;;;;;8.39;68.91;100857.48;85964;1295;95230;-59
2022/10/21 08:48:46;;;;;;;;;;;;;;;8.40;69.03;100855.33;85889;1300;80106;-58
2022/10/21 08:50:57;;;;;;;;;;;;;;;8.42;69.07;100854.48;85968;1300;81948;-59
2022/10/21 08:53:12;;;;;;;;;;;;;;;8.51;69.55;100861.98;85959;1297;97682;-58
2022/10/21 08:55:22;;;;;;;;;;;;;;;8.61;69.57;100856.69;85981;1293;87748;-57
2022/10/21 08:57:31;;;;;;;;;;;;;;;8.59;69.46;100855.16;85963;1297;94611;-58
2022/10/21 08:59:40;;;;;;;;;;;;;;;8.59;69.48;100846.95;85968;1298;79311;-59
2022/10/21 09:01:55;;;;;;;;;;;;;;;8.55;69.19;100837.29;85907;1300;85007;-57
2022/10/21 09:04:09;;;;;;;;;;;;;;;8.40;68.75;100835.23;85982;1294;98761;-57
2022/10/21 09:06:23;;;;;;;;;;;;;;;8.31;68.92;100832.16;86013;1294;87625;-57
2022/10/21 09:08:35;;;;;;;;;;;;;;;8.18;68.27;100831.98;85915;1295;95167;-58
2022/10/21 09:10:54;;;;;;;;;;;;;;;8.10;69.00;100830.30;85962;1297;79643;-57
2022/10/21 09:13:07;;;;;;;;;;;;;;;8.12;69.23;100824.69;86013;1297;83037;-59
2022/10/21 09:15:24;;;;;;;;;;;;;;;8.22;69.17;100822.52;86009;1294;100146;-60
2022/10/21 09:18:03;;;;;;;;;;;;;;;8.54;69.48;100817.63;86014;1300;87720;-57
2022/10/21 09:20:26;;;;;;;;;;;;;;;8.92;68.69;100807.50;86006;1294;94307;-57
2022/10/21 09:22:48;;;;;;;;;;;;;;;9.27;69.39;100806.44;85974;1292;80520;-59
2022/10/21 09:24:58;;;;;;;;;;;;;;;9.66;68.93;100804.02;85963;1298;81400;-58
2022/10/21 09:27:08;;;;;;;;;;;;;;;9.87;68.04;100799.21;85979;1297;100393;-58
2022/10/21 09:29:31;;;;;;;;;;;;;;;10.06;67.25;100792.13;85970;1294;89108;-56
2022/10/21 09:31:38;;;;;;;;;;;;;;;10.42;65.71;100792.69;85970;1298;94484;-57
2022/10/21 09:33:54;;;;;;;;;;;;;;;10.48;66.60;100795.89;85970;1301;80710;-58
2022/10/21 09:36:06;;;;;;;;;;;;;;;10.54;66.79;100795.52;85987;1294;82184;-58
2022/10/21 09:38:16;;;;;;;;;;;;;;;10.59;66.69;100796.05;85946;1299;99551;-59
2022/10/21 09:40:27;;;;;;;;;;;;;;;10.82;66.15;100799.63;85941;1294;88799;-59
2022/10/21 09:42:34;;;;;;;;;;;;;;;11.03;65.84;100791.64;85984;1294;95899;-57
2022/10/21 09:44:45;;;;;;;;;;;;;;;11.10;65.14;100791.38;85961;1292;81265;-58
2022/10/21 09:46:54;;;;;;;;;;;;;;;11.01;65.26;100790.02;86016;1301;81417;-59
2022/10/21 09:49:01;;;;;;;;;;;;;;;11.04;65.29;100793.94;85984;1296;99516;-58
2022/10/21 09:51:14;;;;;;;;;;;;;;;10.92;64.46;100789.08;86013;1300;88912;-59
2022/10/21 09:53:24;;;;;;;;;;;;;;;10.85;65.18;100782.68;86010;1294;95085;-58
2022/10/21 09:55:33;;;;;;;;;;;;;;;10.77;65.03;100780.25;85898;1293;81542;-57
2022/10/21 09:57:46;;;;;;;;;;;;;;;10.81;65.41;100777.98;86010;1285;80793;-59
2022/10/21 09:59:58;;;;;;;;;;;;;;;10.89;65.56;100782.38;85989;1292;99506;-59
2022/10/21 10:02:15;;;;;;;;;;;;;;;10.84;65.50;100774.21;86013;1298;88758;-59
2022/10/21 10:04:30;;;;;;;;;;;;;;;10.87;65.49;100768.77;86028;1300;95144;-59
2022/10/21 10:06:39;;;;;;;;;;;;;;;10.76;64.99;100768.16;86010;1298;79548;-58
2022/10/21 10:08:47;;;;;;;;;;;;;;;10.61;64.90;100772.36;85971;1294;81038;-57
2022/10/21 10:11:01;;;;;;;;;;;;;;;10.57;65.22;100767.70;85997;1294;97866;-58
2022/10/21 10:13:16;;;;;;;;;;;;;;;10.51;65.20;100774.70;85952;1297;87887;-58
2022/10/21 10:15:35;;;;;;;;;;;;;;;10.59;65.30;100766.54;85982;1300;93600;-59
2022/10/21 10:17:43;;;;;;;;;;;;;;;10.72;65.25;100760.90;86009;1297;80768;-58
2022/10/21 10:20:19;;;;;;;;;;;;;;;10.76;64.78;100752.09;85949;1300;80682;-59
2022/10/21 10:22:27;;;;;;;;;;;;;;;10.67;64.92;100747.16;85962;1300;100338;-58
2022/10/21 10:24:34;;;;;;;;;;;;;;;10.64;64.80;100749.59;85977;1295;88932;-58
2022/10/21 10:26:42;;;;;;;;;;;;;;;10.66;65.15;100750.38;85951;1294;95113;-59
2022/10/21 10:28:56;;;;;;;;;;;;;;;10.66;64.89;100753.28;85965;1298;80623;-59
2022/10/21 10:31:03;;;;;;;;;;;;;;;10.46;63.86;100742.46;85984;1298;80996;-58
2022/10/21 10:33:15;;;;;;;;;;;;;;;10.33;64.24;100737.27;85942;1294;98911;-59
2022/10/21 10:35:30;;;;;;;;;;;;;;;10.40;64.31;100731.16;85982;1294;89064;-59
2022/10/21 10:37:39;;;;;;;;;;;;;;;10.40;64.51;100730.92;86039;1297;95776;-58
2022/10/21 10:39:49;;;;;;;;;;;;;;;10.40;64.40;100725.16;85992;1292;80145;-58
2022/10/21 10:41:57;;;;;;;;;;;;;;;10.37;64.45;100721.44;86046;1297;82094;-57
2022/10/21 10:44:11;;;;;;;;;;;;;;;10.39;64.65;100718.38;86022;1297;97894;-58
2022/10/21 10:46:24;;;;;;;;;;;;;;;10.38;64.24;100712.89;86088;1300;87288;-58
2022/10/21 10:48:37;;;;;;;;;;;;;;;10.29;64.56;100712.69;85976;1294;95215;-58
2022/10/21 10:50:49;;;;;;;;;;;;;;;10.34;64.83;100702.67;86003;1301;79429;-57
2022/10/21 10:53:27;;;;;;;;;;;;;;;10.28;64.76;100702.86;85999;1297;81910;-57
2022/10/21 10:55:36;;;;;;;;;;;;;;;10.23;64.58;100696.42;86024;1301;98512;-58
2022/10/21 10:57:46;;;;;;;;;;;;;;;10.14;64.51;100688.75;85961;1298;88309;-58
2022/10/21 11:00:01;;;;;;;;;;;;;;;10.09;64.95;100687.41;85963;1301;95609;-58
2022/10/21 11:02:27;;;;;;;;;;;;;;;10.09;65.30;100684.94;85975;1297;79428;-58
2022/10/21 11:04:38;;;;;;;;;;;;;;;10.05;65.00;100680.02;85961;1294;82676;-58
2022/10/21 11:06:50;;;;;;;;;;;;;;;10.09;65.34;100676.64;85940;1297;99201;-59
2022/10/21 11:08:58;;;;;;;;;;;;;;;10.17;65.43;100670.69;85994;1297;87987;-59
2022/10/21 11:11:07;;;;;;;;;;;;;;;10.30;65.67;100664.01;85964;1294;95473;-58
2022/10/21 11:13:20;;;;;;;;;;;;;;;10.47;65.29;100659.90;85950;1293;80050;-57
2022/10/21 11:15:34;;;;;;;;;;;;;;;10.54;65.28;100657.41;86019;1298;82204;-58
2022/10/21 11:17:49;;;;;;;;;;;;;;;10.57;64.72;100652.96;85959;1295;99893;-57
2022/10/21 11:20:01;;;;;;;;;;;;;;;10.56;64.84;100649.09;85962;1294;87722;-58